createdAt,value
2023-06-23T00:00:24.146Z,2.13
2023-06-23T00:02:51.368Z,3.45
2023-06-23T00:05:18.671Z,3.88
2023-06-23T00:07:45.732Z,2.95
2023-06-23T00:10:12.853Z,2.47
2023-06-23T00:12:44.014Z,3.17
2023-06-23T00:15:13.006Z,2.75
2023-06-23T00:17:42.097Z,3.38
2023-06-23T00:20:14.538Z,2.20
2023-06-23T00:22:42.630Z,2.72
2023-06-23T00:25:11.199Z,2.45
2023-06-23T00:27:43.519Z,2.15
2023-06-23T00:30:12.429Z,2.53
2023-06-23T00:32:40.825Z,2.72
2023-06-23T00:35:12.085Z,2.47
2023-06-23T00:37:39.204Z,3.35
2023-06-23T00:40:12.124Z,3.33
2023-06-23T00:42:50.319Z,4.40
2023-06-23T00:45:17.366Z,2.33
2023-06-23T00:47:46.264Z,2.53
2023-06-23T00:50:20.680Z,2.40
2023-06-23T00:52:51.931Z,2.78
2023-06-23T00:55:23.208Z,3.88
2023-06-23T00:57:51.718Z,2.72
2023-06-23T01:00:20.054Z,5.43
2023-06-23T01:02:50.872Z,2.55
2023-06-23T01:08:28.113Z,2.60
2023-06-23T01:10:58.897Z,2.42
2023-06-23T01:13:55.175Z,3.42
2023-06-23T01:16:32.937Z,2.35
2023-06-23T01:19:30.603Z,2.47
2023-06-23T01:22:18.604Z,2.40
2023-06-23T01:24:48.642Z,2.45
2023-06-23T01:27:35.004Z,2.50
2023-06-23T01:30:07.654Z,2.40
2023-06-23T01:32:52.531Z,4.43
2023-06-23T01:35:25.581Z,1.90
2023-06-23T01:37:59.244Z,2.20
2023-06-23T01:40:27.386Z,2.72
2023-06-23T01:42:58.700Z,2.40
2023-06-23T01:45:30.503Z,2.85
2023-06-23T01:48:02.764Z,2.80
2023-06-23T01:50:32.961Z,2.17
2023-06-23T01:53:02.463Z,2.30
2023-06-23T01:55:32.277Z,2.20
2023-06-23T01:58:02.199Z,2.55
2023-06-23T02:00:30.115Z,3.78
2023-06-23T02:02:59.088Z,2.75
2023-06-23T02:05:28.654Z,2.30
2023-06-23T02:07:58.739Z,2.83
2023-06-23T02:10:29.107Z,3.70
2023-06-23T02:12:58.259Z,2.50
2023-06-23T02:15:28.121Z,5.82
2023-06-23T02:17:57.472Z,2.40
2023-06-23T02:20:25.159Z,2.85
2023-06-23T02:22:54.278Z,2.40
2023-06-23T02:25:23.546Z,3.05
2023-06-23T02:27:51.869Z,2.17
2023-06-23T02:30:19.713Z,2.15
2023-06-23T02:32:50.004Z,2.33
2023-06-23T02:35:17.711Z,2.22
2023-06-23T02:37:54.409Z,2.38
2023-06-23T02:40:24.779Z,2.28
2023-06-23T02:43:01.373Z,2.00
2023-06-23T02:45:35.247Z,2.40
2023-06-23T02:48:04.643Z,2.20
2023-06-23T02:50:35.774Z,2.38
2023-06-23T02:53:10.361Z,1.95
2023-06-23T02:55:46.197Z,2.00
2023-06-23T02:58:17.171Z,2.38
2023-06-23T03:03:16.372Z,2.17
2023-06-23T03:05:44.787Z,3.03
2023-06-23T03:08:12.337Z,4.32
2023-06-23T03:10:39.358Z,2.35
2023-06-23T03:13:06.396Z,2.03
2023-06-23T03:15:34.096Z,3.70
2023-06-23T03:18:26.397Z,3.03
2023-06-23T03:20:56.577Z,3.05
2023-06-23T03:23:26.897Z,3.57
2023-06-23T03:25:55.250Z,2.50
2023-06-23T03:28:28.952Z,2.50
2023-06-23T03:31:04.529Z,4.13
2023-06-23T03:33:35.224Z,2.25
2023-06-23T03:36:16.572Z,4.75
2023-06-23T03:38:58.759Z,4.45
2023-06-23T03:41:29.777Z,3.80
2023-06-23T03:46:32.846Z,4.22
2023-06-23T03:49:03.287Z,2.25
2023-06-23T03:51:34.094Z,2.47
2023-06-23T03:54:03.640Z,3.42
2023-06-23T03:56:34.005Z,4.63
2023-06-23T03:59:03.734Z,2.67
2023-06-23T04:01:34.492Z,2.40
2023-06-23T04:04:04.297Z,2.30
2023-06-23T04:06:32.707Z,2.58
2023-06-23T04:09:02.966Z,2.88
2023-06-23T04:11:31.933Z,2.40
2023-06-23T04:14:00.770Z,2.83
2023-06-23T04:16:28.441Z,2.45
2023-06-23T04:18:57.460Z,2.47
2023-06-23T04:21:25.588Z,2.22
2023-06-23T04:23:54.801Z,3.00
2023-06-23T04:26:21.788Z,3.55
2023-06-23T04:28:53.893Z,34.97
2023-06-23T04:31:23.112Z,42.40
2023-06-23T04:33:50.233Z,24.13
2023-06-23T04:36:19.709Z,18.02
2023-06-23T04:39:00.862Z,13.60
2023-06-23T04:44:00.149Z,14.18
2023-06-23T04:46:31.215Z,13.48
2023-06-23T04:49:03.844Z,14.20
2023-06-23T04:51:37.015Z,10.60
2023-06-23T04:54:12.251Z,11.73
2023-06-23T04:56:41.938Z,12.30
2023-06-23T04:59:12.279Z,25.25
2023-06-23T05:01:40.059Z,25.33
2023-06-23T05:04:09.387Z,31.95
2023-06-23T05:06:41.119Z,27.75
2023-06-23T05:09:10.121Z,24.83
2023-06-23T05:11:37.686Z,23.73
2023-06-23T05:14:08.304Z,33.47
2023-06-23T05:16:37.493Z,34.83
2023-06-23T05:19:10.134Z,22.48
2023-06-23T05:21:37.987Z,19.08
2023-06-23T05:24:10.450Z,21.02
2023-06-23T05:26:40.487Z,20.60
2023-06-23T05:29:09.813Z,23.08
2023-06-23T05:31:42.444Z,29.75
2023-06-23T05:34:13.223Z,33.63
2023-06-23T05:36:41.635Z,34.03
2023-06-23T05:39:11.690Z,21.25
2023-06-23T05:41:38.846Z,22.20
2023-06-23T05:44:06.035Z,20.92
2023-06-23T05:46:36.567Z,16.05
2023-06-23T05:49:18.582Z,17.88
2023-06-23T05:51:46.916Z,20.08
2023-06-23T05:54:16.256Z,26.20
2023-06-23T05:56:52.073Z,35.22
2023-06-23T05:59:43.888Z,35.33
2023-06-23T06:02:20.053Z,32.30
2023-06-23T06:04:52.834Z,19.75
2023-06-23T06:07:21.785Z,18.73
2023-06-23T06:09:50.908Z,29.00
2023-06-23T06:12:19.026Z,20.50
2023-06-23T06:14:47.996Z,23.70
2023-06-23T06:17:17.696Z,17.13
2023-06-23T06:19:46.997Z,13.77
2023-06-23T06:22:17.708Z,10.60
2023-06-23T06:24:47.483Z,12.98
2023-06-23T06:27:16.529Z,13.32
2023-06-23T06:29:45.167Z,21.95
2023-06-23T06:32:14.402Z,10.68
2023-06-23T06:34:44.919Z,10.15
2023-06-23T06:37:13.252Z,14.43
2023-06-23T06:39:42.829Z,11.32
2023-06-23T06:42:10.371Z,11.38
2023-06-23T06:44:37.858Z,8.73
2023-06-23T06:47:08.057Z,11.05
2023-06-23T06:49:36.118Z,8.77
2023-06-23T06:52:04.631Z,8.93
2023-06-23T06:54:31.775Z,9.35
2023-06-23T06:56:59.726Z,9.48
2023-06-23T06:59:26.966Z,9.50
2023-06-23T07:01:54.807Z,13.35
2023-06-23T07:04:22.956Z,5.35
2023-06-23T07:06:54.852Z,9.52
2023-06-23T07:09:22.310Z,10.57
2023-06-23T07:11:50.586Z,5.50
2023-06-23T07:14:18.075Z,8.93
2023-06-23T07:16:45.089Z,8.05
2023-06-23T07:19:12.533Z,5.10
2023-06-23T07:21:39.644Z,4.70
2023-06-23T07:24:07.210Z,7.10
2023-06-23T07:26:35.134Z,6.88
2023-06-23T07:29:02.219Z,6.20
2023-06-23T07:31:29.574Z,7.63
2023-06-23T07:33:57.885Z,9.07
2023-06-23T07:36:25.053Z,7.40
2023-06-23T07:38:52.147Z,14.77
2023-06-23T07:41:19.188Z,5.68
2023-06-23T07:43:46.449Z,4.13
2023-06-23T07:46:13.855Z,7.28
2023-06-23T07:48:41.366Z,8.07
2023-06-23T07:51:08.814Z,6.72
2023-06-23T07:53:36.213Z,7.30
2023-06-23T07:56:03.355Z,13.10
2023-06-23T07:58:30.411Z,9.60
2023-06-23T08:00:57.585Z,4.75
2023-06-23T08:03:24.956Z,12.27
2023-06-23T08:05:52.189Z,5.72
2023-06-23T08:08:19.352Z,5.05
2023-06-23T08:10:46.675Z,6.72
2023-06-23T08:13:13.979Z,5.03
2023-06-23T08:15:42.435Z,7.20
2023-06-23T08:18:10.063Z,6.68
2023-06-23T08:20:37.257Z,4.70
2023-06-23T08:23:04.308Z,3.53
2023-06-23T08:25:31.877Z,3.55
2023-06-23T08:27:59.244Z,7.38
2023-06-23T08:30:28.676Z,3.50
2023-06-23T08:32:56.112Z,3.13
2023-06-23T08:35:24.099Z,4.55
2023-06-23T08:37:51.402Z,4.47
2023-06-23T08:40:18.965Z,4.88
2023-06-23T08:42:46.882Z,5.68
2023-06-23T08:45:17.263Z,5.18
2023-06-23T08:47:53.293Z,4.68
2023-06-23T08:50:22.484Z,4.93
2023-06-23T08:52:49.926Z,14.20
2023-06-23T08:55:17.064Z,7.97
2023-06-23T08:57:44.253Z,8.45
2023-06-23T09:00:12.122Z,4.97
2023-06-23T09:02:39.532Z,7.25
2023-06-23T09:05:06.794Z,6.80
2023-06-23T09:07:34.117Z,66.18
2023-06-23T09:10:01.970Z,40.75
2023-06-23T09:12:29.258Z,12.05
2023-06-23T09:15:00.175Z,11.02
2023-06-23T09:17:28.867Z,9.45
2023-06-23T09:19:56.753Z,5.70
2023-06-23T09:22:25.266Z,7.00
2023-06-23T09:24:52.336Z,7.38
2023-06-23T09:27:19.604Z,5.32
2023-06-23T09:30:01.077Z,5.30
2023-06-23T09:32:31.222Z,11.23
2023-06-23T09:34:58.672Z,3.90
2023-06-23T09:37:26.989Z,5.97
2023-06-23T09:39:57.409Z,5.13
2023-06-23T09:42:26.580Z,3.92
2023-06-23T09:44:53.815Z,5.38
2023-06-23T09:47:21.416Z,13.98
2023-06-23T09:49:50.386Z,6.18
2023-06-23T09:52:28.115Z,6.05
2023-06-23T09:54:56.869Z,4.88
2023-06-23T09:57:25.013Z,3.53
2023-06-23T09:59:54.192Z,5.82
2023-06-23T10:02:28.216Z,4.18
2023-06-23T10:05:08.220Z,3.70
2023-06-23T10:07:35.777Z,6.00
2023-06-23T10:10:21.556Z,4.10
2023-06-23T10:12:53.874Z,6.80
2023-06-23T10:15:21.570Z,3.35
2023-06-23T10:17:49.511Z,3.50
2023-06-23T10:20:17.215Z,5.22
2023-06-23T10:22:46.202Z,3.80
2023-06-23T10:25:13.539Z,2.53
2023-06-23T10:27:43.465Z,4.18
2023-06-23T10:30:16.472Z,3.15
2023-06-23T10:32:49.346Z,3.85
2023-06-23T10:35:21.554Z,3.75
2023-06-23T10:37:50.496Z,2.58
2023-06-23T10:40:23.824Z,2.72
2023-06-23T10:42:52.271Z,3.03
2023-06-23T10:45:19.635Z,4.43
2023-06-23T10:47:49.708Z,2.97
2023-06-23T10:50:17.245Z,3.05
2023-06-23T10:52:44.488Z,2.63
2023-06-23T10:55:38.274Z,3.80
2023-06-23T10:58:18.051Z,3.03
2023-06-23T11:00:55.250Z,3.55
2023-06-23T11:03:37.515Z,2.80
2023-06-23T11:06:09.611Z,3.10
2023-06-23T11:08:41.883Z,4.28
2023-06-23T11:11:19.534Z,3.28
2023-06-23T11:13:48.537Z,5.07
2023-06-23T11:16:33.045Z,3.20
2023-06-23T11:19:02.444Z,4.55
2023-06-23T11:21:39.121Z,4.95
2023-06-23T11:24:16.238Z,3.15
2023-06-23T11:26:56.909Z,2.92
2023-06-23T11:29:24.735Z,6.25
2023-06-23T11:32:08.305Z,3.92
2023-06-23T11:35:08.677Z,4.38
2023-06-23T11:37:36.279Z,5.97
2023-06-23T11:40:05.061Z,7.10
2023-06-23T11:42:32.413Z,3.30
2023-06-23T11:44:59.885Z,24.80
2023-06-23T11:47:31.117Z,6.47
2023-06-23T11:50:03.950Z,3.97
2023-06-23T11:52:31.588Z,7.57
2023-06-23T11:54:58.673Z,4.63
2023-06-23T11:57:26.178Z,3.50
2023-06-23T11:59:54.405Z,4.18
2023-06-23T12:02:22.237Z,6.13
2023-06-23T12:04:52.762Z,5.07
2023-06-23T12:07:21.145Z,6.05
2023-06-23T12:09:48.295Z,3.80
2023-06-23T12:12:17.527Z,3.60
2023-06-23T12:14:45.334Z,4.45
2023-06-23T12:17:14.254Z,3.67
2023-06-23T12:19:43.239Z,4.60
2023-06-23T12:22:19.734Z,3.75
2023-06-23T12:24:47.870Z,3.95
2023-06-23T12:27:15.233Z,4.10
2023-06-23T12:29:42.453Z,3.88
2023-06-23T12:32:10.538Z,4.00
2023-06-23T12:34:43.942Z,4.07
2023-06-23T12:37:18.988Z,4.53
2023-06-23T12:39:53.940Z,4.55
2023-06-23T12:42:22.009Z,5.93
2023-06-23T12:44:50.562Z,4.10
2023-06-23T12:47:19.675Z,5.90
2023-06-23T12:49:46.834Z,4.05
2023-06-23T12:52:13.962Z,4.05
2023-06-23T12:54:40.989Z,4.13
2023-06-23T12:57:10.926Z,3.95
2023-06-23T12:59:37.973Z,4.28
2023-06-23T13:02:05.353Z,3.90
2023-06-23T13:04:32.437Z,4.20
2023-06-23T13:06:59.725Z,5.72
2023-06-23T13:09:26.847Z,4.05
2023-06-23T13:11:54.106Z,3.85
2023-06-23T13:14:21.614Z,4.03
2023-06-23T13:16:49.330Z,3.58
2023-06-23T13:19:17.250Z,7.10
2023-06-23T13:21:47.547Z,3.60
2023-06-23T13:24:14.995Z,3.50
2023-06-23T13:26:45.000Z,4.22
2023-06-23T13:29:12.622Z,3.90
2023-06-23T13:31:40.054Z,4.43
2023-06-23T13:34:07.243Z,8.73
2023-06-23T13:36:34.517Z,3.65
2023-06-23T13:39:02.289Z,5.07
2023-06-23T13:41:29.502Z,4.55
2023-06-23T13:43:56.679Z,3.50
2023-06-23T13:46:24.081Z,5.97
2023-06-23T13:48:51.952Z,3.50
2023-06-23T13:51:19.218Z,3.60
2023-06-23T13:53:46.421Z,4.10
2023-06-23T13:56:14.382Z,3.33
2023-06-23T13:58:41.694Z,5.55
2023-06-23T14:01:08.944Z,5.00
2023-06-23T14:03:37.417Z,9.43
2023-06-23T14:06:05.722Z,5.53
2023-06-23T14:08:35.805Z,3.47
2023-06-23T14:11:03.438Z,6.20
2023-06-23T14:13:30.648Z,4.50
2023-06-23T14:15:58.124Z,3.53
2023-06-23T14:18:25.732Z,6.18
2023-06-23T14:20:53.009Z,3.15
2023-06-23T14:23:20.219Z,3.20
2023-06-23T14:25:47.362Z,3.65
2023-06-23T14:28:16.147Z,3.78
2023-06-23T14:30:43.381Z,3.42
2023-06-23T14:33:10.949Z,3.55
2023-06-23T14:35:38.330Z,3.03
2023-06-23T14:38:07.343Z,2.78
2023-06-23T14:40:34.634Z,2.70
2023-06-23T14:43:02.354Z,3.17
2023-06-23T14:45:36.498Z,4.05
2023-06-23T14:48:04.404Z,3.97
2023-06-23T14:50:31.633Z,4.05
2023-06-23T14:52:59.755Z,2.90
2023-06-23T14:55:27.213Z,2.63
2023-06-23T14:57:54.655Z,4.15
2023-06-23T15:00:22.540Z,5.07
2023-06-23T15:02:49.934Z,6.90
2023-06-23T15:05:17.519Z,3.90
2023-06-23T15:07:44.838Z,3.65
2023-06-23T15:10:12.082Z,3.15
2023-06-23T15:12:39.131Z,3.63
2023-06-23T15:15:06.718Z,4.85
2023-06-23T15:17:34.124Z,4.68
2023-06-23T15:20:01.366Z,4.03
2023-06-23T15:22:28.808Z,6.40
2023-06-23T15:24:55.883Z,7.53
2023-06-23T15:27:23.193Z,10.13
2023-06-23T15:29:50.384Z,7.10
2023-06-23T15:32:17.538Z,6.35
2023-06-23T15:34:44.876Z,5.07
2023-06-23T15:37:12.359Z,4.55
2023-06-23T15:39:42.712Z,46.30
2023-06-23T15:42:12.952Z,57.83
2023-06-23T15:44:43.251Z,37.23
2023-06-23T15:47:10.736Z,18.10
2023-06-23T15:49:38.312Z,7.03
2023-06-23T15:52:07.088Z,6.03
2023-06-23T15:54:36.122Z,6.35
2023-06-23T15:57:03.761Z,3.40
2023-06-23T15:59:30.830Z,4.00
2023-06-23T16:01:57.974Z,5.10
2023-06-23T16:04:25.577Z,2.15
2023-06-23T16:06:52.770Z,3.47
2023-06-23T16:09:19.946Z,3.60
2023-06-23T16:11:46.939Z,2.53
2023-06-23T16:14:13.991Z,1.58
2023-06-23T16:16:42.614Z,27.45
2023-06-23T16:19:10.047Z,29.00
2023-06-23T16:21:37.371Z,30.02
2023-06-23T16:24:04.881Z,24.58
2023-06-23T16:26:32.022Z,49.63
2023-06-23T16:28:59.694Z,20.35
2023-06-23T16:31:26.974Z,37.85
2023-06-23T16:33:56.692Z,14.65
2023-06-23T16:36:25.916Z,7.65
2023-06-23T16:38:52.937Z,9.38
2023-06-23T16:41:20.292Z,8.15
2023-06-23T16:43:47.479Z,100.93
2023-06-23T16:46:14.769Z,62.92
2023-06-23T16:48:41.967Z,44.28
2023-06-23T16:51:09.307Z,68.50
2023-06-23T16:53:36.721Z,22.00
2023-06-23T16:56:06.860Z,21.95
2023-06-23T16:58:34.982Z,21.10
2023-06-23T17:01:02.592Z,55.05
2023-06-23T17:03:29.868Z,43.17
2023-06-23T17:05:57.046Z,24.42
2023-06-23T17:08:24.271Z,183.52
2023-06-23T17:10:51.452Z,58.45
2023-06-23T17:13:18.498Z,79.30
2023-06-23T17:15:45.894Z,43.15
2023-06-23T17:18:12.915Z,42.63
2023-06-23T17:20:39.916Z,43.28
2023-06-23T17:23:07.271Z,71.45
2023-06-23T17:25:34.539Z,32.50
2023-06-23T17:28:02.063Z,20.20
2023-06-23T17:30:29.227Z,9.88
2023-06-23T17:32:56.547Z,8.63
2023-06-23T17:35:23.691Z,12.10
2023-06-23T17:37:50.753Z,34.42
2023-06-23T17:40:21.612Z,59.33
2023-06-23T17:42:48.839Z,31.35
2023-06-23T17:45:16.004Z,13.00
2023-06-23T17:47:43.443Z,7.03
2023-06-23T17:50:11.636Z,7.38
2023-06-23T17:52:38.869Z,7.10
2023-06-23T17:55:06.680Z,15.68
2023-06-23T17:57:33.771Z,3.13
2023-06-23T18:00:01.166Z,32.78
2023-06-23T18:02:29.229Z,22.08
2023-06-23T18:04:56.453Z,18.70
2023-06-23T18:07:24.121Z,26.15
2023-06-23T18:09:51.486Z,28.08
2023-06-23T18:12:18.837Z,33.97
2023-06-23T18:14:46.122Z,28.38
2023-06-23T18:17:13.775Z,9.45
2023-06-23T18:19:42.157Z,36.25
2023-06-23T18:22:09.316Z,22.77
2023-06-23T18:24:36.488Z,32.15
2023-06-23T18:27:04.184Z,41.50
2023-06-23T18:29:31.371Z,18.98
2023-06-23T18:32:08.297Z,33.88
2023-06-23T18:34:36.519Z,24.80
2023-06-23T18:37:03.748Z,24.67
2023-06-23T18:39:31.055Z,25.30
2023-06-23T18:41:58.943Z,27.83
2023-06-23T18:44:26.099Z,46.22
2023-06-23T18:46:53.339Z,34.42
2023-06-23T18:49:20.583Z,49.33
2023-06-23T18:51:48.119Z,19.90
2023-06-23T18:54:15.244Z,39.65
2023-06-23T18:56:42.503Z,31.23
2023-06-23T18:59:09.834Z,29.30
2023-06-23T19:01:37.200Z,32.53
2023-06-23T19:04:04.673Z,33.03
2023-06-23T19:06:31.862Z,21.08
2023-06-23T19:09:04.126Z,18.65
2023-06-23T19:11:32.553Z,15.50
2023-06-23T19:14:03.147Z,19.98
2023-06-23T19:16:31.330Z,17.15
2023-06-23T19:18:59.268Z,18.05
2023-06-23T19:21:27.019Z,12.95
2023-06-23T19:23:55.517Z,17.52
2023-06-23T19:26:22.779Z,22.95
2023-06-23T19:28:50.356Z,21.50
2023-06-23T19:31:17.537Z,15.25
2023-06-23T19:33:44.783Z,11.25
2023-06-23T19:36:12.314Z,17.25
2023-06-23T19:38:39.742Z,10.65
2023-06-23T19:41:07.130Z,15.68
2023-06-23T19:43:34.410Z,13.00
2023-06-23T19:46:03.506Z,14.32
2023-06-23T19:48:30.901Z,50.80
2023-06-23T19:50:58.096Z,104.97
2023-06-23T19:53:25.403Z,129.05
2023-06-23T19:55:55.730Z,123.45
2023-06-23T19:58:23.162Z,179.88
2023-06-23T20:00:50.899Z,173.90
2023-06-23T20:03:18.417Z,163.63
2023-06-23T20:05:45.847Z,143.27
2023-06-23T20:08:13.235Z,148.68
2023-06-23T20:10:40.844Z,140.48
2023-06-23T20:13:08.737Z,126.43
2023-06-23T20:15:36.463Z,132.70
2023-06-23T20:18:04.040Z,128.98
2023-06-23T20:20:31.679Z,133.20
2023-06-23T20:22:59.426Z,146.02
2023-06-23T20:25:27.057Z,133.80
2023-06-23T20:27:54.273Z,127.65
2023-06-23T20:30:21.615Z,121.00
2023-06-23T20:32:48.897Z,114.20
2023-06-23T20:35:16.505Z,139.00
2023-06-23T20:37:44.015Z,127.70
2023-06-23T20:40:14.677Z,109.25
2023-06-23T20:45:15.294Z,97.40
2023-06-23T20:47:45.653Z,84.57
2023-06-23T20:50:13.428Z,84.43
2023-06-23T20:52:41.217Z,80.43
2023-06-23T20:55:09.094Z,70.78
2023-06-23T20:57:37.616Z,70.28
2023-06-23T21:00:05.919Z,58.60
2023-06-23T21:02:33.279Z,68.10
2023-06-23T21:05:01.021Z,63.90
2023-06-23T21:07:29.044Z,58.85
2023-06-23T21:09:56.463Z,53.80
2023-06-23T21:12:25.151Z,47.33
2023-06-23T21:15:04.648Z,56.05
2023-06-23T21:17:34.443Z,100.53
2023-06-23T21:20:02.052Z,38.58
2023-06-23T21:22:29.817Z,44.53
2023-06-23T21:24:57.084Z,36.75
2023-06-23T21:27:25.780Z,41.10
2023-06-23T21:29:53.506Z,52.95
2023-06-23T21:32:20.831Z,44.03
2023-06-23T21:34:48.333Z,33.85
2023-06-23T21:37:16.895Z,44.08
2023-06-23T21:39:44.333Z,51.38
2023-06-23T21:42:11.624Z,78.35
2023-06-23T21:44:38.997Z,40.45
2023-06-23T21:47:06.807Z,37.80
2023-06-23T21:49:34.274Z,34.60
2023-06-23T21:52:01.754Z,25.35
2023-06-23T21:54:29.071Z,30.08
2023-06-23T21:56:56.291Z,21.55
2023-06-23T21:59:23.765Z,23.52
2023-06-23T22:01:51.629Z,25.15
2023-06-23T22:04:18.780Z,21.40
2023-06-23T22:06:46.242Z,18.95
2023-06-23T22:09:13.571Z,17.58
2023-06-23T22:11:40.747Z,17.95
2023-06-23T22:14:07.905Z,16.10
2023-06-23T22:16:35.322Z,17.27
2023-06-23T22:19:02.537Z,17.33
2023-06-23T22:21:29.981Z,16.27
2023-06-23T22:23:57.327Z,24.63
2023-06-23T22:26:24.607Z,14.52
2023-06-23T22:28:51.754Z,15.38
2023-06-23T22:31:19.079Z,12.38
2023-06-23T22:33:46.618Z,11.43
2023-06-23T22:36:13.979Z,16.27
2023-06-23T22:38:41.073Z,11.30
2023-06-23T22:41:08.555Z,14.43
2023-06-23T22:43:35.784Z,9.93
2023-06-23T22:46:03.172Z,8.50
2023-06-23T22:48:30.322Z,9.13
2023-06-23T22:50:57.530Z,8.50
2023-06-23T22:53:24.658Z,9.30
2023-06-23T22:55:52.221Z,8.63
2023-06-23T22:58:19.398Z,10.45
2023-06-23T23:00:46.452Z,7.40
2023-06-23T23:03:13.849Z,7.60
2023-06-23T23:05:42.314Z,8.10
2023-06-23T23:08:09.444Z,8.93
2023-06-23T23:10:37.396Z,11.98
2023-06-23T23:13:05.591Z,7.90
2023-06-23T23:15:32.770Z,6.85
2023-06-23T23:17:59.868Z,5.10
2023-06-23T23:20:27.003Z,9.80
2023-06-23T23:22:54.311Z,10.00
2023-06-23T23:25:22.408Z,7.55
2023-06-23T23:27:52.644Z,4.43
2023-06-23T23:30:20.056Z,3.93
2023-06-23T23:32:50.562Z,4.93
2023-06-23T23:35:18.128Z,5.43
2023-06-23T23:37:46.019Z,5.90
2023-06-23T23:40:14.420Z,8.10
2023-06-23T23:42:45.873Z,6.05
2023-06-23T23:45:13.951Z,4.90
2023-06-23T23:47:42.604Z,8.38
2023-06-23T23:50:10.271Z,6.07
2023-06-23T23:52:37.615Z,4.97
2023-06-23T23:55:05.078Z,6.88
2023-06-23T23:57:32.419Z,4.38
2023-06-23T23:59:59.480Z,3.28
